createdAt,value
2018-04-18T00:00:43.824Z,1022.91
2018-04-18T00:02:36.728Z,1022.93
2018-04-18T00:03:36.749Z,1022.93
2018-04-18T00:05:29.676Z,1022.89
2018-04-18T00:06:29.677Z,1022.91
2018-04-18T00:08:22.581Z,1022.92
2018-04-18T00:09:22.604Z,1022.94
2018-04-18T00:11:15.525Z,1022.90
2018-04-18T00:12:15.551Z,1022.92
2018-04-18T00:14:08.951Z,1022.88
2018-04-18T00:15:08.949Z,1022.89
2018-04-18T00:17:01.864Z,1022.90
2018-04-18T00:18:01.876Z,1022.86
2018-04-18T00:19:54.799Z,1022.85
2018-04-18T00:20:54.813Z,1022.85
2018-04-18T00:22:47.707Z,1022.86
2018-04-18T00:23:47.723Z,1022.88
2018-04-18T00:25:40.664Z,1022.89
2018-04-18T00:26:40.645Z,1022.88
2018-04-18T00:28:33.561Z,1022.86
2018-04-18T00:29:33.569Z,1022.90
2018-04-18T00:31:26.492Z,1022.92
2018-04-18T00:32:26.497Z,1022.97
2018-04-18T00:34:19.419Z,1022.96
2018-04-18T00:35:19.420Z,1022.97
2018-04-18T00:37:12.329Z,1022.95
2018-04-18T00:38:12.346Z,1022.97
2018-04-18T00:40:05.273Z,1022.99
2018-04-18T00:41:05.273Z,1023.00
2018-04-18T00:42:58.174Z,1023.02
2018-04-18T00:43:58.197Z,1023.04
2018-04-18T00:45:51.121Z,1023.07
2018-04-18T00:46:51.128Z,1023.08
2018-04-18T00:48:44.021Z,1023.09
2018-04-18T00:49:44.041Z,1023.06
2018-04-18T00:51:36.964Z,1023.07
2018-04-18T00:52:36.985Z,1023.05
2018-04-18T00:54:29.893Z,1023.10
2018-04-18T00:55:29.909Z,1023.07
2018-04-18T00:57:22.803Z,1023.11
2018-04-18T00:58:22.822Z,1023.16
2018-04-18T01:00:15.923Z,1023.23
2018-04-18T01:01:15.927Z,1023.21
2018-04-18T01:03:08.828Z,1023.19
2018-04-18T01:04:08.845Z,1023.24
2018-04-18T01:06:01.785Z,1023.24
2018-04-18T01:07:01.789Z,1023.25
2018-04-18T01:08:54.692Z,1023.28
2018-04-18T01:09:54.709Z,1023.29
2018-04-18T01:11:47.633Z,1023.31
2018-04-18T01:12:47.633Z,1023.29
2018-04-18T01:14:40.553Z,1023.30
2018-04-18T01:15:40.555Z,1023.33
2018-04-18T01:17:33.459Z,1023.32
2018-04-18T01:18:33.478Z,1023.33
2018-04-18T01:20:26.406Z,1023.34
2018-04-18T01:21:26.409Z,1023.38
2018-04-18T01:23:19.312Z,1023.36
2018-04-18T01:24:19.330Z,1023.36
2018-04-18T01:26:12.749Z,1023.31
2018-04-18T01:27:12.749Z,1023.35
2018-04-18T01:29:05.652Z,1023.33
2018-04-18T01:30:05.679Z,1023.30
2018-04-18T01:31:58.595Z,1023.32
2018-04-18T01:32:58.598Z,1023.31
2018-04-18T01:34:51.534Z,1023.31
2018-04-18T01:35:51.533Z,1023.34
2018-04-18T01:37:44.433Z,1023.34
2018-04-18T01:38:44.451Z,1023.36
2018-04-18T01:40:37.379Z,1023.31
2018-04-18T01:41:37.376Z,1023.30
2018-04-18T01:43:30.280Z,1023.29
2018-04-18T01:44:30.296Z,1023.31
2018-04-18T01:46:23.217Z,1023.34
2018-04-18T01:47:23.229Z,1023.36
2018-04-18T01:49:16.122Z,1023.36
2018-04-18T01:50:16.142Z,1023.32
2018-04-18T01:52:09.067Z,1023.36
2018-04-18T01:53:09.067Z,1023.39
2018-04-18T01:55:01.993Z,1023.37
2018-04-18T01:56:01.990Z,1023.40
2018-04-18T01:57:54.895Z,1023.40
2018-04-18T01:58:54.916Z,1023.37
2018-04-18T02:00:47.836Z,1023.38
2018-04-18T02:01:47.838Z,1023.38
2018-04-18T02:03:40.741Z,1023.43
2018-04-18T02:04:40.764Z,1023.42
2018-04-18T02:06:33.860Z,1023.43
2018-04-18T02:07:33.859Z,1023.45
2018-04-18T02:09:26.759Z,1023.48
2018-04-18T02:10:26.779Z,1023.52
2018-04-18T02:12:19.701Z,1023.53
2018-04-18T02:13:19.701Z,1023.52
2018-04-18T02:15:12.620Z,1023.53
2018-04-18T02:16:12.628Z,1023.51
2018-04-18T02:18:05.522Z,1023.54
2018-04-18T02:19:05.558Z,1023.51
2018-04-18T02:20:58.463Z,1023.56
2018-04-18T02:21:58.470Z,1023.53
2018-04-18T02:23:51.366Z,1023.60
2018-04-18T02:24:51.407Z,1023.60
2018-04-18T02:26:44.301Z,1023.62
2018-04-18T02:27:44.313Z,1023.64
2018-04-18T02:29:37.206Z,1023.63
2018-04-18T02:30:37.257Z,1023.64
2018-04-18T02:32:30.145Z,1023.66
2018-04-18T02:33:30.152Z,1023.66
2018-04-18T02:35:23.071Z,1023.67
2018-04-18T02:36:23.068Z,1023.68
2018-04-18T02:38:15.972Z,1023.66
2018-04-18T02:39:16.001Z,1023.71
2018-04-18T02:41:08.931Z,1023.70
2018-04-18T02:42:08.930Z,1023.73
2018-04-18T02:44:01.843Z,1023.71
2018-04-18T02:45:01.869Z,1023.73
2018-04-18T02:46:54.780Z,1023.70
2018-04-18T02:47:54.780Z,1023.75
2018-04-18T02:49:47.681Z,1023.79
2018-04-18T02:50:47.702Z,1023.79
2018-04-18T02:52:40.625Z,1023.77
2018-04-18T02:53:40.626Z,1023.80
2018-04-18T02:55:33.555Z,1023.84
2018-04-18T02:56:33.555Z,1023.84
2018-04-18T02:58:26.451Z,1023.88
2018-04-18T02:59:26.469Z,1023.89
2018-04-18T03:01:19.392Z,1023.94
2018-04-18T03:02:19.396Z,1023.94
2018-04-18T03:04:12.503Z,1023.94
2018-04-18T03:05:12.523Z,1023.93
2018-04-18T03:07:05.442Z,1023.92
2018-04-18T03:08:05.445Z,1023.92
2018-04-18T03:09:58.345Z,1023.97
2018-04-18T03:10:58.364Z,1023.93
2018-04-18T03:12:51.293Z,1023.97
2018-04-18T03:13:51.285Z,1023.96
2018-04-18T03:15:44.230Z,1023.98
2018-04-18T03:16:44.205Z,1023.99
2018-04-18T03:18:37.105Z,1024.00
2018-04-18T03:19:37.126Z,1024.01
2018-04-18T03:21:30.063Z,1024.07
2018-04-18T03:22:30.046Z,1024.03
2018-04-18T03:24:22.950Z,1024.08
2018-04-18T03:25:22.966Z,1024.09
2018-04-18T03:27:15.892Z,1024.11
2018-04-18T03:28:15.887Z,1024.07
2018-04-18T03:30:08.803Z,1024.06
2018-04-18T03:31:08.808Z,1024.10
2018-04-18T03:33:01.730Z,1024.11
2018-04-18T03:34:01.727Z,1024.07
2018-04-18T03:35:54.687Z,1024.08
2018-04-18T03:36:54.648Z,1024.14
2018-04-18T03:38:47.551Z,1024.16
2018-04-18T03:39:47.568Z,1024.20
2018-04-18T03:41:40.492Z,1024.25
2018-04-18T03:42:40.496Z,1024.27
2018-04-18T03:44:33.395Z,1024.29
2018-04-18T03:45:33.415Z,1024.28
2018-04-18T03:47:26.358Z,1024.32
2018-04-18T03:48:26.378Z,1024.38
2018-04-18T03:50:19.255Z,1024.35
2018-04-18T03:51:19.273Z,1024.35
2018-04-18T03:53:12.199Z,1024.36
2018-04-18T03:54:12.220Z,1024.36
2018-04-18T03:56:05.119Z,1024.38
2018-04-18T03:57:05.125Z,1024.37
2018-04-18T03:58:58.016Z,1024.36
2018-04-18T03:59:58.056Z,1024.37
2018-04-18T04:01:50.958Z,1024.39
2018-04-18T04:02:50.960Z,1024.38
2018-04-18T04:04:43.864Z,1024.40
2018-04-18T04:05:43.879Z,1024.41
2018-04-18T04:07:36.819Z,1024.39
2018-04-18T04:08:36.822Z,1024.38
2018-04-18T04:10:29.742Z,1024.42
2018-04-18T04:11:29.763Z,1024.37
2018-04-18T04:13:22.681Z,1024.44
2018-04-18T04:14:22.675Z,1024.45
2018-04-18T04:16:15.595Z,1024.49
2018-04-18T04:17:15.594Z,1024.51
2018-04-18T04:19:08.495Z,1024.51
2018-04-18T04:20:08.513Z,1024.49
2018-04-18T04:22:01.441Z,1024.52
2018-04-18T04:23:01.439Z,1024.53
2018-04-18T04:24:54.381Z,1024.55
2018-04-18T04:25:54.355Z,1024.58
2018-04-18T04:27:47.291Z,1024.60
2018-04-18T04:28:47.279Z,1024.60
2018-04-18T04:30:40.185Z,1024.65
2018-04-18T04:31:40.201Z,1024.66
2018-04-18T04:33:33.121Z,1024.66
2018-04-18T04:34:33.120Z,1024.64
2018-04-18T04:36:26.040Z,1024.68
2018-04-18T04:37:26.043Z,1024.67
2018-04-18T04:39:18.946Z,1024.67
2018-04-18T04:40:18.963Z,1024.68
2018-04-18T04:42:11.882Z,1024.70
2018-04-18T04:43:11.886Z,1024.71
2018-04-18T04:45:04.842Z,1024.73
2018-04-18T04:46:04.800Z,1024.73
2018-04-18T04:47:57.722Z,1024.79
2018-04-18T04:48:57.722Z,1024.76
2018-04-18T04:50:50.625Z,1024.83
2018-04-18T04:51:50.645Z,1024.85
2018-04-18T04:53:43.564Z,1024.88
2018-04-18T04:54:43.565Z,1024.90
2018-04-18T04:56:36.484Z,1024.93
2018-04-18T04:57:36.486Z,1024.94
2018-04-18T04:59:29.387Z,1024.93
2018-04-18T05:00:29.406Z,1024.93
2018-04-18T05:02:22.325Z,1024.99
2018-04-18T05:03:22.325Z,1024.96
2018-04-18T05:05:15.444Z,1025.01
2018-04-18T05:06:15.462Z,1025.01
2018-04-18T05:08:08.381Z,1025.02
2018-04-18T05:09:08.382Z,1025.06
2018-04-18T05:11:01.288Z,1025.09
2018-04-18T05:12:01.307Z,1025.12
2018-04-18T05:13:54.227Z,1025.11
2018-04-18T05:14:54.225Z,1025.10
2018-04-18T05:16:47.146Z,1025.15
2018-04-18T05:17:47.148Z,1025.15
2018-04-18T05:19:40.050Z,1025.17
2018-04-18T05:20:40.083Z,1025.12
2018-04-18T05:22:32.989Z,1025.17
2018-04-18T05:23:32.988Z,1025.17
2018-04-18T05:25:25.891Z,1025.23
2018-04-18T05:26:25.933Z,1025.21
2018-04-18T05:28:18.834Z,1025.22
2018-04-18T05:29:18.837Z,1025.25
2018-04-18T05:31:11.740Z,1025.29
2018-04-18T05:32:11.763Z,1025.28
2018-04-18T05:34:04.683Z,1025.34
2018-04-18T05:35:04.686Z,1025.35
2018-04-18T05:36:57.630Z,1025.39
2018-04-18T05:37:57.638Z,1025.42
2018-04-18T05:39:50.545Z,1025.43
2018-04-18T05:40:50.566Z,1025.43
2018-04-18T05:42:43.484Z,1025.50
2018-04-18T05:43:43.487Z,1025.48
2018-04-18T05:45:36.395Z,1025.54
2018-04-18T05:46:36.414Z,1025.54
2018-04-18T05:48:29.335Z,1025.57
2018-04-18T05:49:29.342Z,1025.57
2018-04-18T05:51:22.243Z,1025.56
2018-04-18T05:52:22.265Z,1025.63
2018-04-18T05:54:15.192Z,1025.61
2018-04-18T05:55:15.199Z,1025.63
2018-04-18T05:57:08.125Z,1025.62
2018-04-18T05:58:08.124Z,1025.66
2018-04-18T06:00:01.030Z,1025.68
2018-04-18T06:01:01.054Z,1025.67
2018-04-18T06:02:53.973Z,1025.70
2018-04-18T06:03:53.980Z,1025.69
2018-04-18T06:05:46.882Z,1025.78
2018-04-18T06:06:46.909Z,1025.75
2018-04-18T06:08:39.835Z,1025.78
2018-04-18T06:09:39.838Z,1025.80
2018-04-18T06:11:32.744Z,1025.82
2018-04-18T06:12:32.768Z,1025.82
2018-04-18T06:14:25.689Z,1025.82
2018-04-18T06:15:25.695Z,1025.84
2018-04-18T06:17:18.621Z,1025.84
2018-04-18T06:18:18.626Z,1025.85
2018-04-18T06:20:11.534Z,1025.88
2018-04-18T06:21:11.558Z,1025.92
2018-04-18T06:23:04.487Z,1025.92
2018-04-18T06:24:04.491Z,1025.95
2018-04-18T06:25:57.436Z,1025.97
2018-04-18T06:26:57.434Z,1025.97
2018-04-18T06:28:50.370Z,1025.97
2018-04-18T06:29:50.369Z,1025.98
2018-04-18T06:31:43.286Z,1026.00
2018-04-18T06:32:43.305Z,1026.03
2018-04-18T06:34:36.245Z,1026.05
2018-04-18T06:35:36.243Z,1026.05
2018-04-18T06:37:29.178Z,1026.08
2018-04-18T06:38:29.183Z,1026.04
2018-04-18T06:40:22.099Z,1026.08
2018-04-18T06:41:22.122Z,1026.05
2018-04-18T06:43:15.057Z,1026.05
2018-04-18T06:44:15.082Z,1026.07
2018-04-18T06:46:07.977Z,1026.09
2018-04-18T06:47:08.025Z,1026.13
2018-04-18T06:49:00.940Z,1026.12
2018-04-18T06:50:00.956Z,1026.13
2018-04-18T06:51:53.865Z,1026.14
2018-04-18T06:52:53.896Z,1026.17
2018-04-18T06:54:46.846Z,1026.25
2018-04-18T06:55:46.857Z,1026.20
2018-04-18T06:57:39.799Z,1026.22
2018-04-18T06:58:39.804Z,1026.23
2018-04-18T07:00:32.719Z,1026.21
2018-04-18T07:01:32.749Z,1026.21
2018-04-18T07:03:25.756Z,1026.23
2018-04-18T07:04:25.715Z,1026.22
2018-04-18T07:06:19.828Z,1026.27
2018-04-18T07:07:19.857Z,1026.25
2018-04-18T07:09:12.793Z,1026.32
2018-04-18T07:10:12.807Z,1026.33
2018-04-18T07:12:05.721Z,1026.34
2018-04-18T07:13:05.745Z,1026.33
2018-04-18T07:14:59.175Z,1026.33
2018-04-18T07:15:59.197Z,1026.33
2018-04-18T07:17:52.117Z,1026.34
2018-04-18T07:18:52.129Z,1026.32
2018-04-18T07:20:45.038Z,1026.31
2018-04-18T07:21:45.071Z,1026.34
2018-04-18T07:23:38.004Z,1026.35
2018-04-18T07:24:38.011Z,1026.35
2018-04-18T07:26:30.922Z,1026.34
2018-04-18T07:27:30.948Z,1026.34
2018-04-18T07:29:23.880Z,1026.37
2018-04-18T07:30:23.883Z,1026.37
2018-04-18T07:32:16.811Z,1026.35
2018-04-18T07:33:16.835Z,1026.41
2018-04-18T07:35:09.767Z,1026.36
2018-04-18T07:36:09.774Z,1026.37
2018-04-18T07:38:02.710Z,1026.43
2018-04-18T07:39:02.719Z,1026.41
2018-04-18T07:40:55.630Z,1026.43
2018-04-18T07:41:55.654Z,1026.48
2018-04-18T07:43:48.584Z,1026.49
2018-04-18T07:44:48.590Z,1026.46
2018-04-18T07:46:41.565Z,1026.50
2018-04-18T07:47:41.528Z,1026.53
2018-04-18T07:49:34.462Z,1026.53
2018-04-18T07:50:34.468Z,1026.56
2018-04-18T07:52:27.544Z,1026.53
2018-04-18T07:53:27.413Z,1026.55
2018-04-18T07:55:20.348Z,1026.56
2018-04-18T07:56:20.347Z,1026.58
2018-04-18T07:58:13.296Z,1026.55
2018-04-18T07:59:13.291Z,1026.56
2018-04-18T08:01:06.198Z,1026.60
2018-04-18T08:02:06.223Z,1026.56
2018-04-18T08:03:59.159Z,1026.60
2018-04-18T08:04:59.166Z,1026.62
2018-04-18T08:06:52.073Z,1026.62
2018-04-18T08:07:52.100Z,1026.58
2018-04-18T08:09:45.032Z,1026.59
2018-04-18T08:10:45.044Z,1026.62
2018-04-18T08:12:38.602Z,1026.63
2018-04-18T08:13:37.991Z,1026.62
2018-04-18T08:15:30.914Z,1026.63
2018-04-18T08:16:30.935Z,1026.66
2018-04-18T08:18:23.860Z,1026.65
2018-04-18T08:19:23.894Z,1026.67
2018-04-18T08:21:16.785Z,1026.73
2018-04-18T08:22:16.809Z,1026.73
2018-04-18T08:24:09.754Z,1026.72
2018-04-18T08:25:09.759Z,1026.71
2018-04-18T08:27:02.674Z,1026.73
2018-04-18T08:28:02.703Z,1026.74
2018-04-18T08:29:55.634Z,1026.71
2018-04-18T08:30:55.645Z,1026.71
2018-04-18T08:32:48.557Z,1026.73
2018-04-18T08:33:48.586Z,1026.73
2018-04-18T08:35:41.515Z,1026.71
2018-04-18T08:36:41.527Z,1026.73
2018-04-18T08:38:34.484Z,1026.69
2018-04-18T08:39:34.463Z,1026.74
2018-04-18T08:41:27.390Z,1026.74
2018-04-18T08:42:27.406Z,1026.72
2018-04-18T08:44:20.345Z,1026.76
2018-04-18T08:45:20.352Z,1026.73
2018-04-18T08:47:13.269Z,1026.76
2018-04-18T08:48:13.297Z,1026.75
2018-04-18T08:50:06.229Z,1026.74
2018-04-18T08:51:06.240Z,1026.73
2018-04-18T08:52:59.164Z,1026.74
2018-04-18T08:53:59.186Z,1026.76
2018-04-18T08:55:52.135Z,1026.75
2018-04-18T08:56:52.134Z,1026.71
2018-04-18T08:58:45.083Z,1026.72
2018-04-18T08:59:45.072Z,1026.75
2018-04-18T09:01:37.988Z,1026.71
2018-04-18T09:02:38.016Z,1026.66
2018-04-18T09:04:30.948Z,1026.70
2018-04-18T09:05:30.960Z,1026.70
2018-04-18T09:07:23.911Z,1026.68
2018-04-18T09:08:23.938Z,1026.69
2018-04-18T09:10:17.371Z,1026.69
2018-04-18T09:11:17.377Z,1026.66
2018-04-18T09:13:10.299Z,1026.70
2018-04-18T09:14:10.323Z,1026.71
2018-04-18T09:16:03.266Z,1026.70
2018-04-18T09:17:03.275Z,1026.73
2018-04-18T09:18:56.233Z,1026.67
2018-04-18T09:19:56.230Z,1026.70
2018-04-18T09:21:49.150Z,1026.66
2018-04-18T09:22:49.199Z,1026.66
2018-04-18T09:24:42.614Z,1026.67
2018-04-18T09:25:42.623Z,1026.66
2018-04-18T09:27:35.546Z,1026.65
2018-04-18T09:28:35.565Z,1026.64
2018-04-18T09:30:28.504Z,1026.57
2018-04-18T09:31:28.512Z,1026.64
2018-04-18T09:33:21.929Z,1026.59
2018-04-18T09:34:21.955Z,1026.61
2018-04-18T09:36:14.899Z,1026.60
2018-04-18T09:37:14.904Z,1026.61
2018-04-18T09:39:07.859Z,1026.60
2018-04-18T09:40:07.854Z,1026.61
2018-04-18T09:42:00.801Z,1026.57
2018-04-18T09:43:00.804Z,1026.57
2018-04-18T09:44:53.813Z,1026.60
2018-04-18T09:45:53.753Z,1026.61
2018-04-18T09:47:49.701Z,1026.65
2018-04-18T09:48:49.719Z,1026.65
2018-04-18T09:50:43.217Z,1026.64
2018-04-18T09:51:43.221Z,1026.59
2018-04-18T09:53:36.692Z,1026.63
2018-04-18T09:54:36.700Z,1026.59
2018-04-18T09:56:29.635Z,1026.60
2018-04-18T09:57:29.645Z,1026.61
2018-04-18T09:59:23.087Z,1026.57
2018-04-18T10:00:23.096Z,1026.57
2018-04-18T10:02:16.025Z,1026.55
2018-04-18T10:03:16.050Z,1026.53
2018-04-18T10:05:09.485Z,1026.52
2018-04-18T10:06:09.494Z,1026.52
2018-04-18T10:08:02.415Z,1026.51
2018-04-18T10:09:02.443Z,1026.53
2018-04-18T10:10:55.388Z,1026.49
2018-04-18T10:11:55.400Z,1026.44
2018-04-18T10:13:48.323Z,1026.46
2018-04-18T10:14:48.348Z,1026.47
2018-04-18T10:16:41.285Z,1026.51
2018-04-18T10:17:41.293Z,1026.47
2018-04-18T10:19:34.233Z,1026.48
2018-04-18T10:20:34.241Z,1026.46
2018-04-18T10:22:27.167Z,1026.45
2018-04-18T10:23:27.192Z,1026.47
2018-04-18T10:25:20.142Z,1026.41
2018-04-18T10:26:20.150Z,1026.38
2018-04-18T10:28:13.074Z,1026.41
2018-04-18T10:29:13.096Z,1026.38
2018-04-18T10:31:06.055Z,1026.40
2018-04-18T10:32:06.069Z,1026.37
2018-04-18T10:33:58.992Z,1026.36
2018-04-18T10:34:59.024Z,1026.35
2018-04-18T10:36:51.962Z,1026.34
2018-04-18T10:37:51.974Z,1026.30
2018-04-18T10:39:45.437Z,1026.30
2018-04-18T10:40:45.427Z,1026.33
2018-04-18T10:42:38.364Z,1026.33
2018-04-18T10:43:38.393Z,1026.26
2018-04-18T10:45:31.829Z,1026.29
2018-04-18T10:46:31.837Z,1026.33
2018-04-18T10:48:24.758Z,1026.34
2018-04-18T10:49:24.800Z,1026.32
2018-04-18T10:51:17.736Z,1026.30
2018-04-18T10:52:17.742Z,1026.32
2018-04-18T10:54:10.692Z,1026.32
2018-04-18T10:55:10.717Z,1026.30
2018-04-18T10:57:04.160Z,1026.30
2018-04-18T10:58:04.165Z,1026.30
2018-04-18T10:59:57.113Z,1026.36
2018-04-18T11:00:57.129Z,1026.34
2018-04-18T11:02:50.042Z,1026.29
2018-04-18T11:03:50.074Z,1026.38
2018-04-18T11:05:43.527Z,1026.35
2018-04-18T11:06:43.534Z,1026.34
2018-04-18T11:08:36.460Z,1026.26
2018-04-18T11:09:36.501Z,1026.27
2018-04-18T11:11:29.434Z,1026.22
2018-04-18T11:12:29.483Z,1026.23
2018-04-18T11:14:22.369Z,1026.25
2018-04-18T11:15:22.398Z,1026.22
2018-04-18T11:17:15.364Z,1026.17
2018-04-18T11:18:15.372Z,1026.17
2018-04-18T11:20:08.322Z,1026.20
2018-04-18T11:21:08.327Z,1026.14
2018-04-18T11:23:01.250Z,1026.08
2018-04-18T11:24:01.279Z,1026.08
2018-04-18T11:25:54.231Z,1026.12
2018-04-18T11:26:54.295Z,1026.13
2018-04-18T11:28:47.669Z,1026.09
2018-04-18T11:29:47.694Z,1026.08
2018-04-18T11:31:40.636Z,1026.11
2018-04-18T11:32:40.647Z,1026.08
2018-04-18T11:34:33.571Z,1026.12
2018-04-18T11:35:33.599Z,1026.10
2018-04-18T11:37:26.548Z,1026.12
2018-04-18T11:38:26.560Z,1026.13
2018-04-18T11:40:19.503Z,1026.10
2018-04-18T11:41:19.507Z,1026.12
2018-04-18T11:43:12.433Z,1026.08
2018-04-18T11:44:12.462Z,1026.11
2018-04-18T11:46:05.408Z,1026.13
2018-04-18T11:47:05.413Z,1026.11
2018-04-18T11:48:58.344Z,1026.02
2018-04-18T11:49:58.390Z,1026.03
2018-04-18T11:51:51.320Z,1026.04
2018-04-18T11:52:51.323Z,1026.01
2018-04-18T11:54:44.743Z,1025.99
2018-04-18T11:55:44.772Z,1025.98
2018-04-18T11:57:37.779Z,1026.02
2018-04-18T11:58:37.734Z,1026.01
2018-04-18T12:00:30.697Z,1025.98
2018-04-18T12:01:30.688Z,1026.00
2018-04-18T12:03:23.628Z,1026.03
2018-04-18T12:04:23.650Z,1025.98
2018-04-18T12:06:16.617Z,1025.97
2018-04-18T12:07:16.623Z,1025.95
2018-04-18T12:09:09.547Z,1025.96
2018-04-18T12:10:09.579Z,1025.97
2018-04-18T12:12:02.521Z,1025.99
2018-04-18T12:13:02.531Z,1026.01
2018-04-18T12:14:55.455Z,1026.00
2018-04-18T12:15:55.483Z,1026.02
2018-04-18T12:17:48.425Z,1026.00
2018-04-18T12:18:48.435Z,1026.03
2018-04-18T12:20:41.459Z,1026.03
2018-04-18T12:21:41.393Z,1025.99
2018-04-18T12:23:34.316Z,1025.97
2018-04-18T12:24:35.348Z,1025.98
2018-04-18T12:26:27.294Z,1025.98
2018-04-18T12:27:27.300Z,1025.93
2018-04-18T12:29:20.257Z,1025.96
2018-04-18T12:30:20.256Z,1025.94
2018-04-18T12:32:13.261Z,1025.96
2018-04-18T12:33:13.207Z,1025.91
2018-04-18T12:35:06.140Z,1025.95
2018-04-18T12:36:06.169Z,1025.91
2018-04-18T12:37:59.104Z,1025.90
2018-04-18T12:38:59.118Z,1025.88
2018-04-18T12:40:52.059Z,1025.83
2018-04-18T12:41:52.077Z,1025.79
2018-04-18T12:43:45.043Z,1025.78
2018-04-18T12:44:45.038Z,1025.79
2018-04-18T12:46:37.973Z,1025.75
2018-04-18T12:47:37.981Z,1025.76
2018-04-18T12:49:30.919Z,1025.77
2018-04-18T12:50:30.973Z,1025.75
2018-04-18T12:52:23.899Z,1025.80
2018-04-18T12:53:23.904Z,1025.80
2018-04-18T12:55:16.878Z,1025.79
2018-04-18T12:56:16.859Z,1025.77
2018-04-18T12:58:10.295Z,1025.79
2018-04-18T12:59:10.306Z,1025.80
2018-04-18T13:01:03.256Z,1025.77
2018-04-18T13:02:03.282Z,1025.73
2018-04-18T13:03:56.760Z,1025.76
2018-04-18T13:04:56.732Z,1025.73
2018-04-18T13:06:50.197Z,1025.65
2018-04-18T13:07:50.191Z,1025.72
2018-04-18T13:09:43.116Z,1025.63
2018-04-18T13:10:43.155Z,1025.62
2018-04-18T13:12:36.089Z,1025.60
2018-04-18T13:13:36.103Z,1025.57
2018-04-18T13:15:29.029Z,1025.61
2018-04-18T13:16:29.054Z,1025.56
2018-04-18T13:18:22.028Z,1025.57
2018-04-18T13:19:22.016Z,1025.58
2018-04-18T13:21:14.940Z,1025.58
2018-04-18T13:22:14.975Z,1025.51
2018-04-18T13:24:07.920Z,1025.49
2018-04-18T13:25:07.933Z,1025.53
2018-04-18T13:27:00.882Z,1025.48
2018-04-18T13:28:00.895Z,1025.48
2018-04-18T13:29:53.834Z,1025.51
2018-04-18T13:30:53.880Z,1025.49
2018-04-18T13:32:48.292Z,1025.54
2018-04-18T13:33:48.307Z,1025.51
2018-04-18T13:35:41.230Z,1025.47
2018-04-18T13:36:41.257Z,1025.50
2018-04-18T13:38:35.817Z,1025.54
2018-04-18T13:39:35.707Z,1025.47
2018-04-18T13:41:28.661Z,1025.45
2018-04-18T13:42:28.665Z,1025.45
2018-04-18T13:44:21.597Z,1025.48
2018-04-18T13:45:21.631Z,1025.44
2018-04-18T13:47:14.582Z,1025.44
2018-04-18T13:48:14.586Z,1025.47
2018-04-18T13:50:07.545Z,1025.43
2018-04-18T13:51:07.570Z,1025.48
2018-04-18T13:53:00.525Z,1025.41
2018-04-18T13:54:00.536Z,1025.46
2018-04-18T13:55:53.463Z,1025.41
2018-04-18T13:56:53.493Z,1025.41
2018-04-18T13:58:46.447Z,1025.36
2018-04-18T13:59:46.453Z,1025.34
2018-04-18T14:01:39.901Z,1025.33
2018-04-18T14:02:39.910Z,1025.29
2018-04-18T14:04:32.827Z,1025.29
2018-04-18T14:05:32.859Z,1025.31
2018-04-18T14:07:25.802Z,1025.30
2018-04-18T14:08:25.809Z,1025.29
2018-04-18T14:10:19.232Z,1025.30
2018-04-18T14:11:19.263Z,1025.28
2018-04-18T14:13:12.225Z,1025.24
2018-04-18T14:14:12.236Z,1025.26
2018-04-18T14:16:05.190Z,1025.24
2018-04-18T14:17:05.214Z,1025.21
2018-04-18T14:18:58.166Z,1025.23
2018-04-18T14:19:58.179Z,1025.23
2018-04-18T14:21:51.737Z,1025.19
2018-04-18T14:22:51.745Z,1025.22
2018-04-18T14:24:45.291Z,1025.18
2018-04-18T14:25:45.320Z,1025.18
2018-04-18T14:27:38.361Z,1025.12
2018-04-18T14:28:38.371Z,1025.09
2018-04-18T14:30:31.394Z,1025.12
2018-04-18T14:31:31.425Z,1025.10
2018-04-18T14:33:24.481Z,1025.08
2018-04-18T14:34:24.482Z,1025.09
2018-04-18T14:36:17.606Z,1025.10
2018-04-18T14:37:17.537Z,1025.07
2018-04-18T14:39:10.583Z,1025.06
2018-04-18T14:40:10.597Z,1025.07
2018-04-18T14:42:03.644Z,1025.06
2018-04-18T14:43:03.649Z,1025.07
2018-04-18T14:44:56.744Z,1025.04
2018-04-18T14:45:56.712Z,1025.04
2018-04-18T14:47:51.193Z,1025.00
2018-04-18T14:48:51.214Z,1025.04
2018-04-18T14:50:44.223Z,1024.98
2018-04-18T14:51:44.322Z,1024.93
2018-04-18T14:53:37.299Z,1024.95
2018-04-18T14:54:37.312Z,1024.95
2018-04-18T14:56:30.332Z,1024.92
2018-04-18T14:57:30.526Z,1024.95
2018-04-18T14:59:23.408Z,1024.93
2018-04-18T15:00:23.475Z,1024.91
2018-04-18T15:02:16.469Z,1024.91
2018-04-18T15:03:16.478Z,1024.93
2018-04-18T15:05:09.573Z,1024.89
2018-04-18T15:06:09.531Z,1024.87
2018-04-18T15:08:02.577Z,1024.79
2018-04-18T15:09:02.587Z,1024.83
2018-04-18T15:10:56.022Z,1024.82
2018-04-18T15:11:56.052Z,1024.82
2018-04-18T15:13:49.100Z,1024.76
2018-04-18T15:14:49.112Z,1024.77
2018-04-18T15:16:42.137Z,1024.79
2018-04-18T15:17:42.231Z,1024.77
2018-04-18T15:19:35.215Z,1024.79
2018-04-18T15:20:35.221Z,1024.76
2018-04-18T15:22:33.183Z,1024.74
2018-04-18T15:23:33.196Z,1024.69
2018-04-18T15:25:27.472Z,1024.72
2018-04-18T15:26:26.270Z,1024.69
2018-04-18T15:28:26.849Z,1024.71
2018-04-18T15:29:26.926Z,1024.69
2018-04-18T15:31:21.249Z,1024.64
2018-04-18T15:32:21.281Z,1024.65
2018-04-18T15:34:14.729Z,1024.65
2018-04-18T15:35:14.740Z,1024.66
2018-04-18T15:37:07.776Z,1024.63
2018-04-18T15:38:07.795Z,1024.61
2018-04-18T15:40:00.857Z,1024.55
2018-04-18T15:41:00.869Z,1024.59
2018-04-18T15:42:53.900Z,1024.58
2018-04-18T15:43:53.907Z,1024.56
2018-04-18T15:45:46.932Z,1024.52
2018-04-18T15:46:47.017Z,1024.57
2018-04-18T15:48:40.030Z,1024.50
2018-04-18T15:49:40.020Z,1024.49
2018-04-18T15:51:33.049Z,1024.51
2018-04-18T15:52:33.104Z,1024.49
2018-04-18T15:54:26.638Z,1024.52
2018-04-18T15:55:26.645Z,1024.50
2018-04-18T15:57:19.679Z,1024.52
2018-04-18T15:58:19.710Z,1024.55
2018-04-18T16:00:12.745Z,1024.52
2018-04-18T16:01:12.809Z,1024.50
2018-04-18T16:03:06.323Z,1024.49
2018-04-18T16:04:06.328Z,1024.48
2018-04-18T16:06:00.275Z,1024.45
2018-04-18T16:07:00.302Z,1024.45
2018-04-18T16:08:53.351Z,1024.42
2018-04-18T16:09:53.369Z,1024.43
2018-04-18T16:11:46.388Z,1024.40
2018-04-18T16:12:46.419Z,1024.39
2018-04-18T16:14:39.471Z,1024.40
2018-04-18T16:15:39.479Z,1024.39
2018-04-18T16:17:32.495Z,1024.41
2018-04-18T16:18:32.528Z,1024.42
2018-04-18T16:20:25.578Z,1024.35
2018-04-18T16:21:25.585Z,1024.35
2018-04-18T16:23:20.067Z,1024.37
2018-04-18T16:24:20.073Z,1024.38
2018-04-18T16:26:13.098Z,1024.33
2018-04-18T16:27:13.297Z,1024.34
2018-04-18T16:29:06.176Z,1024.34
2018-04-18T16:30:06.190Z,1024.36
2018-04-18T16:31:59.234Z,1024.35
2018-04-18T16:32:59.248Z,1024.34
2018-04-18T16:34:52.288Z,1024.33
2018-04-18T16:35:52.303Z,1024.31
2018-04-18T16:37:45.325Z,1024.28
2018-04-18T16:38:45.353Z,1024.27
2018-04-18T16:40:38.397Z,1024.31
2018-04-18T16:41:38.410Z,1024.30
2018-04-18T16:43:31.457Z,1024.31
2018-04-18T16:44:31.472Z,1024.29
2018-04-18T16:46:24.908Z,1024.30
2018-04-18T16:47:25.013Z,1024.30
2018-04-18T16:49:18.000Z,1024.33
2018-04-18T16:50:17.988Z,1024.34
2018-04-18T16:52:11.016Z,1024.34
2018-04-18T16:53:11.044Z,1024.30
2018-04-18T16:55:04.089Z,1024.29
2018-04-18T16:56:04.104Z,1024.31
2018-04-18T16:57:57.638Z,1024.29
2018-04-18T16:58:57.684Z,1024.30
2018-04-18T17:00:51.230Z,1024.27
2018-04-18T17:01:51.242Z,1024.24
2018-04-18T17:03:44.285Z,1024.24
2018-04-18T17:04:44.294Z,1024.22
2018-04-18T17:06:37.781Z,1024.20
2018-04-18T17:07:37.780Z,1024.18
2018-04-18T17:09:30.808Z,1024.14
2018-04-18T17:10:30.820Z,1024.18
2018-04-18T17:12:23.841Z,1024.16
2018-04-18T17:13:23.900Z,1024.16
2018-04-18T17:15:16.919Z,1024.13
2018-04-18T17:16:16.928Z,1024.12
2018-04-18T17:18:09.954Z,1024.12
2018-04-18T17:19:09.987Z,1024.12
2018-04-18T17:21:03.031Z,1024.17
2018-04-18T17:22:03.039Z,1024.14
2018-04-18T17:23:57.522Z,1024.12
2018-04-18T17:24:57.534Z,1024.13
2018-04-18T17:26:50.967Z,1024.12